createdAt,value
2022-08-16T00:01:21.060Z,2.63
2022-08-16T00:03:48.118Z,2.70
2022-08-16T00:06:15.766Z,2.35
2022-08-16T00:08:42.468Z,3.03
2022-08-16T00:11:15.846Z,2.40
2022-08-16T00:13:53.876Z,2.53
2022-08-16T00:17:00.548Z,2.05
2022-08-16T00:19:19.186Z,2.35
2022-08-16T00:21:46.591Z,2.05
2022-08-16T00:24:32.562Z,2.40
2022-08-16T00:27:01.865Z,2.47
2022-08-16T00:29:30.131Z,2.90
2022-08-16T00:32:00.955Z,2.10
2022-08-16T00:34:41.250Z,2.88
2022-08-16T00:37:11.964Z,2.25
2022-08-16T00:39:44.838Z,2.60
2022-08-16T00:42:11.746Z,2.42
2022-08-16T00:44:41.489Z,2.67
2022-08-16T00:47:16.736Z,2.90
2022-08-16T00:49:44.793Z,2.65
2022-08-16T00:52:30.646Z,2.78
2022-08-16T00:54:59.842Z,3.03
2022-08-16T00:57:44.521Z,2.75
2022-08-16T01:00:20.205Z,3.07
2022-08-16T01:02:51.024Z,2.92
2022-08-16T01:05:19.525Z,2.80
2022-08-16T01:07:53.456Z,2.63
2022-08-16T01:10:31.986Z,2.55
2022-08-16T01:13:06.562Z,2.58
2022-08-16T01:15:37.677Z,2.25
2022-08-16T01:18:39.324Z,2.22
2022-08-16T01:21:33.759Z,2.67
2022-08-16T01:24:52.437Z,2.67
2022-08-16T01:27:38.858Z,2.50
2022-08-16T01:30:20.085Z,2.85
2022-08-16T01:33:01.224Z,2.40
2022-08-16T01:35:56.129Z,2.78
2022-08-16T01:38:28.323Z,2.40
2022-08-16T01:41:08.603Z,2.58
2022-08-16T01:43:39.003Z,2.72
2022-08-16T01:46:29.747Z,3.20
2022-08-16T01:49:07.868Z,3.10
2022-08-16T01:51:34.885Z,3.17
2022-08-16T01:54:08.123Z,3.65
2022-08-16T01:56:40.173Z,3.25
2022-08-16T01:59:15.926Z,3.03
2022-08-16T02:01:49.534Z,3.28
2022-08-16T02:04:48.594Z,2.90
2022-08-16T02:07:08.945Z,2.90
2022-08-16T02:09:39.021Z,3.35
2022-08-16T02:12:39.806Z,3.13
2022-08-16T02:14:56.108Z,2.35
2022-08-16T02:17:24.858Z,2.72
2022-08-16T02:19:59.164Z,2.97
2022-08-16T02:22:34.945Z,3.15
2022-08-16T02:25:09.979Z,2.20
2022-08-16T02:27:41.482Z,2.53
2022-08-16T02:30:36.794Z,2.67
2022-08-16T02:33:05.608Z,2.47
2022-08-16T02:35:34.766Z,2.80
2022-08-16T02:38:20.452Z,2.63
2022-08-16T02:40:48.418Z,2.63
2022-08-16T02:43:16.003Z,2.67
2022-08-16T02:45:43.837Z,2.78
2022-08-16T02:48:30.596Z,2.22
2022-08-16T02:51:06.210Z,2.38
2022-08-16T02:53:36.784Z,2.88
2022-08-16T02:56:05.571Z,2.30
2022-08-16T02:58:37.178Z,2.40
2022-08-16T03:01:07.151Z,2.60
2022-08-16T03:04:46.323Z,2.42
2022-08-16T03:09:19.787Z,2.25
2022-08-16T03:11:50.630Z,2.42
2022-08-16T03:14:20.911Z,2.75
2022-08-16T03:16:58.585Z,2.67
2022-08-16T03:19:59.440Z,2.58
2022-08-16T03:22:19.252Z,3.03
2022-08-16T03:24:57.223Z,2.70
2022-08-16T03:27:30.611Z,2.67
2022-08-16T03:30:17.516Z,2.53
2022-08-16T03:32:51.630Z,2.47
2022-08-16T03:35:22.577Z,2.75
2022-08-16T03:38:01.535Z,2.80
2022-08-16T03:40:35.458Z,2.60
2022-08-16T03:43:20.501Z,2.78
2022-08-16T03:45:53.445Z,3.15
2022-08-16T03:48:36.995Z,2.95
2022-08-16T03:51:14.002Z,3.10
2022-08-16T03:54:00.900Z,3.10
2022-08-16T03:56:30.342Z,2.80
2022-08-16T03:58:58.372Z,2.95
2022-08-16T04:01:29.868Z,2.60
2022-08-16T04:03:57.601Z,2.45
2022-08-16T04:08:51.889Z,2.50
2022-08-16T04:11:18.826Z,2.28
2022-08-16T04:13:59.995Z,2.83
2022-08-16T04:16:37.896Z,2.35
2022-08-16T04:19:31.683Z,2.30
2022-08-16T04:22:00.665Z,2.22
2022-08-16T04:24:30.860Z,2.50
2022-08-16T04:26:58.712Z,2.45
2022-08-16T04:29:27.802Z,2.20
2022-08-16T04:32:11.113Z,2.47
2022-08-16T04:34:41.314Z,2.20
2022-08-16T04:37:09.782Z,2.42
2022-08-16T04:39:47.311Z,1.98
2022-08-16T04:42:26.335Z,2.13
2022-08-16T04:44:58.308Z,2.22
2022-08-16T04:47:33.187Z,2.25
2022-08-16T04:50:06.915Z,1.95
2022-08-16T04:52:36.058Z,1.90
2022-08-16T04:55:07.598Z,2.00
2022-08-16T04:57:36.859Z,2.10
2022-08-16T05:00:32.867Z,2.30
2022-08-16T05:02:58.624Z,2.15
2022-08-16T05:05:32.990Z,1.83
2022-08-16T05:08:28.482Z,2.40
2022-08-16T05:11:05.501Z,2.55
2022-08-16T05:13:40.379Z,2.80
2022-08-16T05:16:11.695Z,2.30
2022-08-16T05:18:39.537Z,2.50
2022-08-16T05:21:11.306Z,2.33
2022-08-16T05:23:45.458Z,2.78
2022-08-16T05:26:20.483Z,2.67
2022-08-16T05:28:55.767Z,2.55
2022-08-16T05:31:29.281Z,2.60
2022-08-16T05:33:58.086Z,2.22
2022-08-16T05:36:36.453Z,2.45
2022-08-16T05:40:09.053Z,2.80
2022-08-16T05:42:40.769Z,2.40
2022-08-16T05:45:21.400Z,2.65
2022-08-16T05:48:00.205Z,2.80
2022-08-16T05:50:37.768Z,2.78
2022-08-16T05:53:08.500Z,2.50
2022-08-16T05:55:43.814Z,2.42
2022-08-16T05:58:31.710Z,2.53
2022-08-16T06:00:57.435Z,2.22
2022-08-16T06:03:25.845Z,2.67
2022-08-16T06:06:00.728Z,2.50
2022-08-16T06:08:32.015Z,2.33
2022-08-16T06:11:13.334Z,2.08
2022-08-16T06:13:43.407Z,2.75
2022-08-16T06:16:18.370Z,2.33
2022-08-16T06:18:46.558Z,2.72
2022-08-16T06:21:22.714Z,2.47
2022-08-16T06:23:54.365Z,2.47
2022-08-16T06:26:22.915Z,2.45
2022-08-16T06:28:50.278Z,2.50
2022-08-16T06:31:25.669Z,2.45
2022-08-16T06:33:55.209Z,2.70
2022-08-16T06:36:24.023Z,2.40
2022-08-16T06:39:06.289Z,2.67
2022-08-16T06:41:51.921Z,2.63
2022-08-16T06:44:39.286Z,2.78
2022-08-16T06:47:17.194Z,2.85
2022-08-16T06:49:54.046Z,3.05
2022-08-16T06:52:58.181Z,2.50
2022-08-16T06:57:44.778Z,2.45
2022-08-16T07:00:17.552Z,2.90
2022-08-16T07:02:59.605Z,2.22
2022-08-16T07:05:41.446Z,2.70
2022-08-16T07:08:15.133Z,2.33
2022-08-16T07:10:46.720Z,2.55
2022-08-16T07:13:26.663Z,2.38
2022-08-16T07:16:04.118Z,2.00
2022-08-16T07:18:33.371Z,2.72
2022-08-16T07:21:02.190Z,2.83
2022-08-16T07:23:37.198Z,2.42
2022-08-16T07:26:24.953Z,2.65
2022-08-16T07:28:53.583Z,2.38
2022-08-16T07:31:21.537Z,2.40
2022-08-16T07:33:53.386Z,3.03
2022-08-16T07:36:30.902Z,2.47
2022-08-16T07:38:58.881Z,2.90
2022-08-16T07:41:28.464Z,3.38
2022-08-16T07:44:00.001Z,3.20
2022-08-16T07:46:39.492Z,3.15
2022-08-16T07:49:13.536Z,3.17
2022-08-16T07:51:42.381Z,2.97
2022-08-16T07:54:16.999Z,2.80
2022-08-16T07:56:50.293Z,3.15
2022-08-16T07:59:17.396Z,3.15
2022-08-16T08:01:44.608Z,2.97
2022-08-16T08:04:13.298Z,3.17
2022-08-16T08:06:42.724Z,2.92
2022-08-16T08:09:15.336Z,3.35
2022-08-16T08:12:00.864Z,3.20
2022-08-16T08:14:34.137Z,3.00
2022-08-16T08:17:01.865Z,3.05
2022-08-16T08:19:31.265Z,3.22
2022-08-16T08:22:01.858Z,3.50
2022-08-16T08:24:46.781Z,3.45
2022-08-16T08:27:22.526Z,2.85
2022-08-16T08:30:43.928Z,3.33
2022-08-16T08:32:58.831Z,3.33
2022-08-16T08:35:27.017Z,3.22
2022-08-16T08:37:56.534Z,2.60
2022-08-16T08:40:28.860Z,3.00
2022-08-16T08:43:00.244Z,2.50
2022-08-16T08:45:47.912Z,3.00
2022-08-16T08:48:34.342Z,3.40
2022-08-16T08:51:09.725Z,2.88
2022-08-16T08:56:45.759Z,2.80
2022-08-16T08:59:27.818Z,2.70
2022-08-16T09:01:57.463Z,2.95
2022-08-16T09:04:27.118Z,2.40
2022-08-16T09:06:55.036Z,2.40
2022-08-16T09:09:23.669Z,2.67
2022-08-16T09:12:06.319Z,2.35
2022-08-16T09:14:56.644Z,2.75
2022-08-16T09:17:45.524Z,2.40
2022-08-16T09:20:16.667Z,2.90
2022-08-16T09:22:44.065Z,2.40
2022-08-16T09:25:26.467Z,2.42
2022-08-16T09:28:09.499Z,2.53
2022-08-16T09:30:45.177Z,2.25
2022-08-16T09:33:18.194Z,2.47
2022-08-16T09:35:46.618Z,2.50
2022-08-16T09:38:22.294Z,2.35
2022-08-16T09:41:00.574Z,2.50
2022-08-16T09:43:59.487Z,2.30
2022-08-16T09:46:44.418Z,2.10
2022-08-16T09:49:03.375Z,2.90
2022-08-16T09:51:37.273Z,2.72
2022-08-16T09:54:05.649Z,2.30
2022-08-16T09:56:35.319Z,2.28
2022-08-16T10:02:27.075Z,2.30
2022-08-16T10:04:54.329Z,2.55
2022-08-16T10:07:22.766Z,2.70
2022-08-16T10:09:54.010Z,2.38
2022-08-16T10:12:43.238Z,2.70
2022-08-16T10:15:16.234Z,2.60
2022-08-16T10:18:00.820Z,2.28
2022-08-16T10:20:38.084Z,2.38
2022-08-16T10:23:08.062Z,2.30
2022-08-16T10:27:16.983Z,2.63
2022-08-16T10:28:30.016Z,2.40
2022-08-16T10:30:59.753Z,2.50
2022-08-16T10:33:29.306Z,2.38
2022-08-16T10:36:03.162Z,2.50
2022-08-16T10:38:30.361Z,3.25
2022-08-16T10:41:00.403Z,2.70
2022-08-16T10:43:27.705Z,2.78
2022-08-16T10:46:00.890Z,2.30
2022-08-16T10:48:29.161Z,2.40
2022-08-16T10:51:00.354Z,2.08
2022-08-16T10:53:33.258Z,2.17
2022-08-16T10:56:02.738Z,1.90
2022-08-16T10:58:34.546Z,2.40
2022-08-16T11:03:57.387Z,2.30
2022-08-16T11:06:27.973Z,1.98
2022-08-16T11:14:33.524Z,1.67
2022-08-16T11:17:10.596Z,1.88
2022-08-16T11:22:46.967Z,1.70
2022-08-16T11:28:07.473Z,2.13
2022-08-16T11:30:38.902Z,1.70
2022-08-16T11:33:08.879Z,1.90
2022-08-16T11:36:22.203Z,1.38
2022-08-16T11:38:52.023Z,1.70
2022-08-16T11:41:11.397Z,1.65
2022-08-16T11:43:41.632Z,2.15
2022-08-16T11:46:44.753Z,1.42
2022-08-16T11:48:58.220Z,1.55
2022-08-16T11:51:24.942Z,1.50
2022-08-16T11:53:51.911Z,1.70
2022-08-16T11:59:06.609Z,1.70
2022-08-16T12:01:55.163Z,1.70
2022-08-16T12:04:22.288Z,1.67
2022-08-16T12:06:50.051Z,1.95
2022-08-16T12:09:20.978Z,1.85
2022-08-16T12:11:53.200Z,1.90
2022-08-16T12:14:22.785Z,1.85
2022-08-16T12:16:55.672Z,1.63
2022-08-16T12:19:33.649Z,2.00
2022-08-16T12:24:32.774Z,1.80
2022-08-16T12:27:00.142Z,1.77
2022-08-16T12:29:29.387Z,1.80
2022-08-16T12:32:01.510Z,1.92
2022-08-16T12:34:50.717Z,1.70
2022-08-16T12:37:19.680Z,2.85
2022-08-16T12:39:50.881Z,1.70
2022-08-16T12:42:19.404Z,1.80
2022-08-16T12:44:47.920Z,1.90
2022-08-16T12:47:33.250Z,1.75
2022-08-16T12:50:01.823Z,1.73
2022-08-16T12:52:32.823Z,1.92
2022-08-16T12:55:01.925Z,2.00
2022-08-16T12:57:36.385Z,1.60
2022-08-16T13:00:10.961Z,2.00
2022-08-16T13:02:37.837Z,2.00
2022-08-16T13:07:37.583Z,1.95
2022-08-16T13:10:20.713Z,1.80
2022-08-16T13:13:01.055Z,1.50
2022-08-16T13:17:55.793Z,1.48
2022-08-16T13:20:26.092Z,1.75
2022-08-16T13:22:58.938Z,1.88
2022-08-16T13:25:27.254Z,2.03
2022-08-16T13:28:03.054Z,1.73
2022-08-16T13:30:36.345Z,1.77
2022-08-16T13:33:10.854Z,1.98
2022-08-16T13:35:42.680Z,1.95
2022-08-16T13:38:21.608Z,1.70
2022-08-16T13:40:56.875Z,2.10
2022-08-16T13:43:26.460Z,1.70
2022-08-16T13:45:55.270Z,1.63
2022-08-16T13:48:25.177Z,1.55
2022-08-16T13:50:55.074Z,1.75
2022-08-16T13:53:25.038Z,1.58
2022-08-16T13:55:58.481Z,1.85
2022-08-16T13:58:35.431Z,1.85
2022-08-16T14:01:03.442Z,1.80
2022-08-16T14:03:30.643Z,2.30
2022-08-16T14:06:02.423Z,2.10
2022-08-16T14:08:29.222Z,2.25
2022-08-16T14:13:22.858Z,2.10
2022-08-16T14:18:20.369Z,2.23
2022-08-16T14:20:48.678Z,2.00
2022-08-16T14:23:23.690Z,1.85
2022-08-16T14:25:53.784Z,2.33
2022-08-16T14:28:21.915Z,2.08
2022-08-16T14:30:50.712Z,1.92
2022-08-16T14:33:18.643Z,2.17
2022-08-16T14:35:50.083Z,2.20
2022-08-16T14:38:23.743Z,2.47
2022-08-16T14:40:55.479Z,2.30
2022-08-16T14:43:24.804Z,2.00
2022-08-16T14:45:54.590Z,2.17
2022-08-16T14:48:26.363Z,1.90
2022-08-16T14:50:54.708Z,1.88
2022-08-16T14:53:23.069Z,2.42
2022-08-16T14:55:49.761Z,2.13
2022-08-16T14:58:19.369Z,1.90
2022-08-16T15:00:47.876Z,1.67
2022-08-16T15:03:18.906Z,2.30
2022-08-16T15:05:49.110Z,2.35
2022-08-16T15:08:21.267Z,2.20
2022-08-16T15:11:03.142Z,2.20
2022-08-16T15:13:29.857Z,2.03
2022-08-16T15:16:02.288Z,2.47
2022-08-16T15:18:31.942Z,2.13
2022-08-16T15:21:03.876Z,2.70
2022-08-16T15:23:33.653Z,2.42
2022-08-16T15:26:02.752Z,1.95
2022-08-16T15:28:33.311Z,2.28
2022-08-16T15:31:03.689Z,1.90
2022-08-16T15:33:33.235Z,2.10
2022-08-16T15:36:00.251Z,2.42
2022-08-16T15:38:54.668Z,1.88
2022-08-16T15:41:38.720Z,1.70
2022-08-16T15:44:10.709Z,2.40
2022-08-16T15:46:56.292Z,2.33
2022-08-16T15:49:34.538Z,1.92
2022-08-16T15:52:20.513Z,2.75
2022-08-16T15:54:53.172Z,2.50
2022-08-16T15:57:24.488Z,2.47
2022-08-16T15:59:56.457Z,2.55
2022-08-16T16:02:38.493Z,2.25
2022-08-16T16:05:09.780Z,1.95
2022-08-16T16:07:40.896Z,2.17
2022-08-16T16:10:29.936Z,2.42
2022-08-16T16:12:59.645Z,2.22
2022-08-16T16:15:29.634Z,1.98
2022-08-16T16:17:57.273Z,2.20
2022-08-16T16:20:27.402Z,2.08
2022-08-16T16:23:10.643Z,2.13
2022-08-16T16:25:39.624Z,1.98
2022-08-16T16:28:46.361Z,2.10
2022-08-16T16:31:00.153Z,3.08
2022-08-16T16:33:28.890Z,1.92
2022-08-16T16:35:58.237Z,2.03
2022-08-16T16:38:28.699Z,2.42
2022-08-16T16:40:56.044Z,2.45
2022-08-16T16:43:25.556Z,2.05
2022-08-16T16:45:59.027Z,2.40
2022-08-16T16:48:29.641Z,1.75
2022-08-16T16:51:09.594Z,2.10
2022-08-16T16:53:42.830Z,2.28
2022-08-16T16:56:20.554Z,2.00
2022-08-16T16:58:57.571Z,2.30
2022-08-16T17:01:56.642Z,2.20
2022-08-16T17:04:27.337Z,2.45
2022-08-16T17:06:59.387Z,2.35
2022-08-16T17:09:26.134Z,2.22
2022-08-16T17:11:55.382Z,1.98
2022-08-16T17:14:33.888Z,3.95
2022-08-16T17:17:09.090Z,2.35
2022-08-16T17:19:40.766Z,2.60
2022-08-16T17:22:15.132Z,2.75
2022-08-16T17:24:44.907Z,2.45
2022-08-16T17:29:59.069Z,2.40
2022-08-16T17:32:44.316Z,2.20
2022-08-16T17:35:18.325Z,2.23
2022-08-16T17:37:51.790Z,2.35
2022-08-16T17:39:26.770Z,2.88
2022-08-16T17:40:46.914Z,2.72
2022-08-16T17:43:19.240Z,2.22
2022-08-16T17:45:46.429Z,3.08
2022-08-16T17:48:13.414Z,2.75
2022-08-16T17:50:41.652Z,2.67
2022-08-16T17:53:09.606Z,2.42
2022-08-16T17:55:38.943Z,2.33
2022-08-16T17:58:10.527Z,2.72
2022-08-16T18:00:56.470Z,2.25
2022-08-16T18:04:03.166Z,2.47
2022-08-16T18:06:23.790Z,2.60
2022-08-16T18:08:57.923Z,2.65
2022-08-16T18:11:30.084Z,2.53
2022-08-16T18:13:59.805Z,2.65
2022-08-16T18:16:26.854Z,2.70
2022-08-16T18:18:53.665Z,2.53
2022-08-16T18:21:39.147Z,2.97
2022-08-16T18:24:06.078Z,2.92
2022-08-16T18:26:33.147Z,2.90
2022-08-16T18:31:26.682Z,2.75
2022-08-16T18:33:54.720Z,2.88
2022-08-16T18:36:23.257Z,2.92
2022-08-16T18:38:51.266Z,3.03
2022-08-16T18:41:19.265Z,2.45
2022-08-16T18:44:22.376Z,2.85
2022-08-16T18:46:32.717Z,3.30
2022-08-16T18:48:59.645Z,2.58
2022-08-16T18:51:26.330Z,3.60
2022-08-16T18:53:53.413Z,3.72
2022-08-16T18:56:20.112Z,3.75
2022-08-16T18:58:46.853Z,4.10
2022-08-16T19:01:13.671Z,4.30
2022-08-16T19:03:40.518Z,3.92
2022-08-16T19:06:13.604Z,2.70
2022-08-16T19:08:43.714Z,3.00
2022-08-16T19:11:19.009Z,3.00
2022-08-16T19:13:46.623Z,3.03
2022-08-16T19:16:14.247Z,3.08
2022-08-16T19:18:41.738Z,2.97
2022-08-16T19:21:11.388Z,2.90
2022-08-16T19:23:42.766Z,2.83
2022-08-16T19:26:24.383Z,3.05
2022-08-16T19:28:59.612Z,3.28
2022-08-16T19:31:33.259Z,2.95
2022-08-16T19:34:00.669Z,2.67
2022-08-16T19:36:35.954Z,2.83
2022-08-16T19:39:16.547Z,2.78
2022-08-16T19:41:52.110Z,3.20
2022-08-16T19:44:21.658Z,3.10
2022-08-16T19:46:49.130Z,3.20
2022-08-16T19:49:16.745Z,3.17
2022-08-16T19:51:47.499Z,3.33
2022-08-16T19:54:14.482Z,3.13
2022-08-16T19:56:41.186Z,3.38
2022-08-16T19:59:39.605Z,3.00
2022-08-16T20:01:54.865Z,2.80
2022-08-16T20:04:22.947Z,2.72
2022-08-16T20:06:52.621Z,2.80
2022-08-16T20:09:20.222Z,2.90
2022-08-16T20:11:48.160Z,2.95
2022-08-16T20:14:19.286Z,2.90
2022-08-16T20:16:57.260Z,2.80
2022-08-16T20:19:27.068Z,2.90
2022-08-16T20:21:54.006Z,3.10
2022-08-16T20:24:34.224Z,3.20
2022-08-16T20:27:03.621Z,2.78
2022-08-16T20:29:30.978Z,2.75
2022-08-16T20:31:57.816Z,2.70
2022-08-16T20:34:24.658Z,2.70
2022-08-16T20:36:51.365Z,2.90
2022-08-16T20:39:18.073Z,3.15
2022-08-16T20:41:45.174Z,2.80
2022-08-16T20:44:12.488Z,2.90
2022-08-16T20:46:40.056Z,3.05
2022-08-16T20:49:09.019Z,3.20
2022-08-16T20:51:46.780Z,3.80
2022-08-16T20:54:16.855Z,3.10
2022-08-16T20:56:43.558Z,2.63
2022-08-16T20:59:10.267Z,2.78
2022-08-16T21:01:46.689Z,2.65
2022-08-16T21:04:19.437Z,3.10
2022-08-16T21:06:54.335Z,2.83
2022-08-16T21:09:23.678Z,4.03
2022-08-16T21:11:52.996Z,3.30
2022-08-16T21:14:19.801Z,3.13
2022-08-16T21:16:46.535Z,3.13
2022-08-16T21:19:13.483Z,2.85
2022-08-16T21:21:40.307Z,3.22
2022-08-16T21:24:07.069Z,3.22
2022-08-16T21:26:38.981Z,2.78
2022-08-16T21:29:07.708Z,3.13
2022-08-16T21:31:40.266Z,3.03
2022-08-16T21:34:08.236Z,3.10
2022-08-16T21:36:36.447Z,2.80
2022-08-16T21:39:05.754Z,3.15
2022-08-16T21:41:33.170Z,3.05
2022-08-16T21:43:59.860Z,2.80
2022-08-16T21:46:26.572Z,2.83
2022-08-16T21:48:53.302Z,2.90
2022-08-16T21:53:47.363Z,2.83
2022-08-16T21:56:17.266Z,2.90
2022-08-16T21:58:45.614Z,2.92
2022-08-16T22:01:12.840Z,2.83
2022-08-16T22:06:13.591Z,3.28
2022-08-16T22:08:49.858Z,2.75
2022-08-16T22:11:24.570Z,2.83
2022-08-16T22:13:58.626Z,3.10
2022-08-16T22:16:32.625Z,2.90
2022-08-16T22:19:00.182Z,3.08
2022-08-16T22:21:27.039Z,2.88
2022-08-16T22:23:56.866Z,2.72
2022-08-16T22:26:32.029Z,3.10
2022-08-16T22:29:06.500Z,2.90
2022-08-16T22:31:34.855Z,3.10
2022-08-16T22:34:02.322Z,2.70
2022-08-16T22:36:31.005Z,3.35
2022-08-16T22:38:59.690Z,3.50
2022-08-16T22:41:31.926Z,3.15
2022-08-16T22:44:00.150Z,3.45
2022-08-16T22:46:26.895Z,3.20
2022-08-16T22:48:54.056Z,3.63
2022-08-16T22:51:23.453Z,2.97
2022-08-16T22:53:51.063Z,3.35
2022-08-16T22:56:17.924Z,3.03
2022-08-16T22:58:45.679Z,3.10
2022-08-16T23:01:13.990Z,3.45
2022-08-16T23:03:41.075Z,3.38
2022-08-16T23:06:10.245Z,3.15
2022-08-16T23:08:40.980Z,2.90
2022-08-16T23:11:25.349Z,3.20
2022-08-16T23:13:54.691Z,3.08
2022-08-16T23:16:24.892Z,3.33
2022-08-16T23:19:00.163Z,3.42
2022-08-16T23:23:54.191Z,3.50
2022-08-16T23:26:44.773Z,2.75
2022-08-16T23:29:22.206Z,2.80
2022-08-16T23:31:58.743Z,3.17
2022-08-16T23:34:27.407Z,3.00
2022-08-16T23:36:54.762Z,3.20
2022-08-16T23:39:22.034Z,3.25
2022-08-16T23:41:48.740Z,3.22
2022-08-16T23:44:56.185Z,3.55
2022-08-16T23:47:02.325Z,3.63
2022-08-16T23:49:58.507Z,2.70
2022-08-16T23:52:18.007Z,3.33
2022-08-16T23:54:44.713Z,3.30
2022-08-16T23:57:11.843Z,3.28
2022-08-16T23:59:53.458Z,3.05
